sensor_id;sensor_type;location;lat;lon;timestamp;pressure;altitude;pressure_sealevel;temperature;humidity
76753;BME280;65687;51.308;16.916;2024-03-02T00:04:59;98936.73;;;9.40;100.00
76753;BME280;65687;51.308;16.916;2024-03-02T00:10:07;98932.46;;;9.40;100.00
76753;BME280;65687;51.308;16.916;2024-03-02T00:20:40;98925.73;;;9.40;100.00
76753;BME280;65687;51.308;16.916;2024-03-02T00:25:44;98922.77;;;9.38;100.00
76753;BME280;65687;51.308;16.916;2024-03-02T00:30:54;98916.61;;;9.36;100.00
76753;BME280;65687;51.308;16.916;2024-03-02T00:35:57;98919.14;;;9.33;100.00
76753;BME280;65687;51.308;16.916;2024-03-02T00:41:00;98914.26;;;9.30;100.00
76753;BME280;65687;51.308;16.916;2024-03-02T00:46:06;98923.55;;;9.27;100.00
76753;BME280;65687;51.308;16.916;2024-03-02T00:51:07;98921.98;;;9.23;100.00
76753;BME280;65687;51.308;16.916;2024-03-02T00:56:10;98921.30;;;9.20;100.00
76753;BME280;65687;51.308;16.916;2024-03-02T01:01:13;98921.30;;;9.17;100.00
76753;BME280;65687;51.308;16.916;2024-03-02T01:06:16;98915.70;;;9.17;100.00
76753;BME280;65687;51.308;16.916;2024-03-02T01:11:18;98908.86;;;9.15;100.00
76753;BME280;65687;51.308;16.916;2024-03-02T01:16:20;98908.27;;;9.13;100.00
76753;BME280;65687;51.308;16.916;2024-03-02T01:21:22;98911.80;;;9.13;100.00
76753;BME280;65687;51.308;16.916;2024-03-02T01:26:23;98913.83;;;9.14;100.00
76753;BME280;65687;51.308;16.916;2024-03-02T01:31:25;98911.99;;;9.13;100.00
76753;BME280;65687;51.308;16.916;2024-03-02T01:36:26;98909.96;;;9.13;100.00
76753;BME280;65687;51.308;16.916;2024-03-02T01:41:28;98908.50;;;9.15;100.00
76753;BME280;65687;51.308;16.916;2024-03-02T01:46:30;98903.30;;;9.15;100.00
76753;BME280;65687;51.308;16.916;2024-03-02T01:51:31;98906.66;;;9.15;100.00
76753;BME280;65687;51.308;16.916;2024-03-02T01:56:33;98909.98;;;9.14;100.00
76753;BME280;65687;51.308;16.916;2024-03-02T02:01:35;98905.83;;;9.11;100.00
76753;BME280;65687;51.308;16.916;2024-03-02T02:06:36;98903.41;;;9.11;100.00
76753;BME280;65687;51.308;16.916;2024-03-02T02:11:38;98900.98;;;9.10;100.00
76753;BME280;65687;51.308;16.916;2024-03-02T02:16:40;98898.64;;;9.07;100.00
76753;BME280;65687;51.308;16.916;2024-03-02T02:21:42;98894.52;;;9.05;100.00
76753;BME280;65687;51.308;16.916;2024-03-02T02:26:44;98898.45;;;9.03;100.00
76753;BME280;65687;51.308;16.916;2024-03-02T02:31:46;98905.27;;;8.99;100.00
76753;BME280;65687;51.308;16.916;2024-03-02T02:36:47;98883.80;;;8.95;100.00
76753;BME280;65687;51.308;16.916;2024-03-02T02:41:49;98872.56;;;8.89;100.00
76753;BME280;65687;51.308;16.916;2024-03-02T02:46:50;98871.11;;;8.84;100.00
76753;BME280;65687;51.308;16.916;2024-03-02T02:51:52;98865.04;;;8.81;100.00
76753;BME280;65687;51.308;16.916;2024-03-02T02:56:54;98859.27;;;8.77;100.00
76753;BME280;65687;51.308;16.916;2024-03-02T03:01:55;98861.41;;;8.73;100.00
76753;BME280;65687;51.308;16.916;2024-03-02T03:06:57;98863.18;;;8.69;100.00
76753;BME280;65687;51.308;16.916;2024-03-02T03:11:59;98862.23;;;8.64;100.00
76753;BME280;65687;51.308;16.916;2024-03-02T03:17:00;98861.15;;;8.57;100.00
76753;BME280;65687;51.308;16.916;2024-03-02T03:22:02;98857.30;;;8.52;100.00
76753;BME280;65687;51.308;16.916;2024-03-02T03:27:05;98863.48;;;8.45;100.00
76753;BME280;65687;51.308;16.916;2024-03-02T03:32:07;98871.15;;;8.41;100.00
76753;BME280;65687;51.308;16.916;2024-03-02T03:37:08;98878.55;;;8.38;100.00
76753;BME280;65687;51.308;16.916;2024-03-02T03:42:11;98883.83;;;8.36;100.00
76753;BME280;65687;51.308;16.916;2024-03-02T03:47:12;98878.83;;;8.34;100.00
76753;BME280;65687;51.308;16.916;2024-03-02T03:52:14;98880.58;;;8.32;100.00
76753;BME280;65687;51.308;16.916;2024-03-02T03:57:16;98889.88;;;8.33;100.00
76753;BME280;65687;51.308;16.916;2024-03-02T04:02:18;98887.89;;;8.34;100.00
76753;BME280;65687;51.308;16.916;2024-03-02T04:07:19;98887.48;;;8.35;100.00
76753;BME280;65687;51.308;16.916;2024-03-02T04:12:21;98887.21;;;8.34;100.00
76753;BME280;65687;51.308;16.916;2024-03-02T04:17:23;98886.06;;;8.34;100.00
76753;BME280;65687;51.308;16.916;2024-03-02T04:22:26;98888.86;;;8.33;100.00
76753;BME280;65687;51.308;16.916;2024-03-02T04:27:28;98899.05;;;8.35;100.00
76753;BME280;65687;51.308;16.916;2024-03-02T04:32:29;98904.40;;;8.37;100.00
76753;BME280;65687;51.308;16.916;2024-03-02T04:37:34;98904.99;;;8.38;100.00
76753;BME280;65687;51.308;16.916;2024-03-02T04:42:36;98912.84;;;8.40;100.00
76753;BME280;65687;51.308;16.916;2024-03-02T04:47:38;98914.56;;;8.41;100.00
76753;BME280;65687;51.308;16.916;2024-03-02T04:52:39;98920.23;;;8.40;100.00
76753;BME280;65687;51.308;16.916;2024-03-02T04:57:41;98912.34;;;8.37;100.00
76753;BME280;65687;51.308;16.916;2024-03-02T05:02:42;98920.00;;;8.33;100.00
76753;BME280;65687;51.308;16.916;2024-03-02T05:07:44;98920.88;;;8.31;100.00
76753;BME280;65687;51.308;16.916;2024-03-02T05:12:46;98915.77;;;8.25;100.00
76753;BME280;65687;51.308;16.916;2024-03-02T05:17:47;98926.95;;;8.18;100.00
76753;BME280;65687;51.308;16.916;2024-03-02T05:22:49;98932.78;;;8.14;100.00
76753;BME280;65687;51.308;16.916;2024-03-02T05:27:51;98942.33;;;8.10;100.00
76753;BME280;65687;51.308;16.916;2024-03-02T05:32:52;98944.33;;;8.10;100.00
76753;BME280;65687;51.308;16.916;2024-03-02T05:37:54;98957.19;;;8.08;100.00
76753;BME280;65687;51.308;16.916;2024-03-02T05:42:56;98959.27;;;8.07;100.00
76753;BME280;65687;51.308;16.916;2024-03-02T05:47:58;98964.84;;;8.04;100.00
76753;BME280;65687;51.308;16.916;2024-03-02T05:52:59;98967.80;;;8.03;100.00
76753;BME280;65687;51.308;16.916;2024-03-02T05:58:01;98973.36;;;8.03;100.00
76753;BME280;65687;51.308;16.916;2024-03-02T06:03:21;98974.70;;;7.98;100.00
76753;BME280;65687;51.308;16.916;2024-03-02T06:08:23;98978.56;;;7.98;100.00
76753;BME280;65687;51.308;16.916;2024-03-02T06:13:24;98980.83;;;7.99;100.00
76753;BME280;65687;51.308;16.916;2024-03-02T06:18:27;98985.60;;;8.00;100.00
76753;BME280;65687;51.308;16.916;2024-03-02T06:23:29;98991.52;;;8.01;100.00
76753;BME280;65687;51.308;16.916;2024-03-02T06:28:31;98999.23;;;8.00;100.00
76753;BME280;65687;51.308;16.916;2024-03-02T06:33:32;99005.89;;;7.99;100.00
76753;BME280;65687;51.308;16.916;2024-03-02T06:38:34;98999.99;;;7.99;100.00
76753;BME280;65687;51.308;16.916;2024-03-02T06:43:36;99001.57;;;8.00;100.00
76753;BME280;65687;51.308;16.916;2024-03-02T06:48:37;99000.95;;;8.04;100.00
76753;BME280;65687;51.308;16.916;2024-03-02T06:53:39;99006.15;;;8.06;100.00
76753;BME280;65687;51.308;16.916;2024-03-02T06:58:41;99007.41;;;8.10;100.00
76753;BME280;65687;51.308;16.916;2024-03-02T07:03:44;99005.07;;;8.13;100.00
76753;BME280;65687;51.308;16.916;2024-03-02T07:08:46;99009.00;;;8.15;100.00
76753;BME280;65687;51.308;16.916;2024-03-02T07:13:47;99012.02;;;8.17;100.00
76753;BME280;65687;51.308;16.916;2024-03-02T07:18:49;99014.79;;;8.21;100.00
76753;BME280;65687;51.308;16.916;2024-03-02T07:23:53;99017.34;;;8.27;100.00
76753;BME280;65687;51.308;16.916;2024-03-02T07:28:54;99012.71;;;8.33;100.00
76753;BME280;65687;51.308;16.916;2024-03-02T07:33:56;99015.37;;;8.38;100.00
76753;BME280;65687;51.308;16.916;2024-03-02T07:38:58;99014.13;;;8.42;100.00
76753;BME280;65687;51.308;16.916;2024-03-02T07:43:59;99015.16;;;8.52;100.00
76753;BME280;65687;51.308;16.916;2024-03-02T07:49:01;99015.80;;;8.65;100.00
76753;BME280;65687;51.308;16.916;2024-03-02T07:54:03;99021.59;;;8.83;100.00
76753;BME280;65687;51.308;16.916;2024-03-02T07:59:04;99025.32;;;9.04;100.00
76753;BME280;65687;51.308;16.916;2024-03-02T08:04:06;99023.54;;;9.26;100.00
76753;BME280;65687;51.308;16.916;2024-03-02T08:09:08;99022.29;;;9.42;100.00
76753;BME280;65687;51.308;16.916;2024-03-02T08:14:12;99025.85;;;9.58;100.00
76753;BME280;65687;51.308;16.916;2024-03-02T08:19:14;99018.58;;;9.76;100.00
76753;BME280;65687;51.308;16.916;2024-03-02T08:24:15;99017.67;;;9.93;99.74
76753;BME280;65687;51.308;16.916;2024-03-02T08:29:17;99021.98;;;10.10;98.75
76753;BME280;65687;51.308;16.916;2024-03-02T08:34:19;99028.35;;;10.25;97.31
76753;BME280;65687;51.308;16.916;2024-03-02T08:39:21;99027.14;;;10.40;95.94
76753;BME280;65687;51.308;16.916;2024-03-02T08:44:23;99019.58;;;10.50;94.83
76753;BME280;65687;51.308;16.916;2024-03-02T08:49:26;99019.90;;;10.60;94.24
76753;BME280;65687;51.308;16.916;2024-03-02T08:54:27;99025.30;;;10.73;94.52
76753;BME280;65687;51.308;16.916;2024-03-02T08:59:29;99022.71;;;10.82;93.19
76753;BME280;65687;51.308;16.916;2024-03-02T09:04:31;99024.13;;;10.90;93.71
76753;BME280;65687;51.308;16.916;2024-03-02T09:09:32;99018.90;;;11.06;93.31
76753;BME280;65687;51.308;16.916;2024-03-02T09:14:35;99020.59;;;11.24;92.00
76753;BME280;65687;51.308;16.916;2024-03-02T09:19:39;99023.64;;;11.31;90.79
76753;BME280;65687;51.308;16.916;2024-03-02T09:24:41;99026.79;;;11.36;90.08
76753;BME280;65687;51.308;16.916;2024-03-02T09:29:42;99026.41;;;11.39;90.29
76753;BME280;65687;51.308;16.916;2024-03-02T09:34:44;99025.69;;;11.45;90.80
76753;BME280;65687;51.308;16.916;2024-03-02T09:39:46;99026.54;;;11.48;89.66
76753;BME280;65687;51.308;16.916;2024-03-02T09:44:48;99025.01;;;11.48;89.50
76753;BME280;65687;51.308;16.916;2024-03-02T09:49:49;99024.49;;;11.55;89.59
76753;BME280;65687;51.308;16.916;2024-03-02T09:54:51;99027.11;;;11.57;88.45
76753;BME280;65687;51.308;16.916;2024-03-02T09:59:53;99029.30;;;11.60;88.75
76753;BME280;65687;51.308;16.916;2024-03-02T10:04:54;99032.45;;;11.66;89.01
76753;BME280;65687;51.308;16.916;2024-03-02T10:09:56;99030.84;;;11.71;88.36
76753;BME280;65687;51.308;16.916;2024-03-02T10:15:04;99027.59;;;11.74;86.93
76753;BME280;65687;51.308;16.916;2024-03-02T10:20:22;99020.04;;;11.75;87.69
76753;BME280;65687;51.308;16.916;2024-03-02T10:25:29;99019.40;;;11.82;87.66
76753;BME280;65687;51.308;16.916;2024-03-02T10:30:33;99011.30;;;11.90;87.77
76753;BME280;65687;51.308;16.916;2024-03-02T10:35:35;99008.67;;;11.92;86.26
76753;BME280;65687;51.308;16.916;2024-03-02T10:40:39;99006.97;;;11.99;86.41
76753;BME280;65687;51.308;16.916;2024-03-02T10:45:40;99009.70;;;12.11;84.83
76753;BME280;65687;51.308;16.916;2024-03-02T10:50:42;99011.86;;;12.17;84.45
76753;BME280;65687;51.308;16.916;2024-03-02T10:55:45;99005.26;;;12.25;84.58
76753;BME280;65687;51.308;16.916;2024-03-02T11:00:51;99004.12;;;12.33;85.12
76753;BME280;65687;51.308;16.916;2024-03-02T11:05:53;98997.42;;;12.39;83.86
76753;BME280;65687;51.308;16.916;2024-03-02T11:10:57;98990.20;;;12.44;84.34
76753;BME280;65687;51.308;16.916;2024-03-02T11:16:05;98993.05;;;12.48;83.07
76753;BME280;65687;51.308;16.916;2024-03-02T11:21:07;98991.83;;;12.46;82.31
76753;BME280;65687;51.308;16.916;2024-03-02T11:26:22;98994.11;;;12.49;82.63
76753;BME280;65687;51.308;16.916;2024-03-02T11:31:59;98993.61;;;12.52;81.59
76753;BME280;65687;51.308;16.916;2024-03-02T11:37:03;98994.48;;;12.57;81.25
76753;BME280;65687;51.308;16.916;2024-03-02T11:42:08;98991.61;;;12.61;80.66
76753;BME280;65687;51.308;16.916;2024-03-02T11:47:14;98996.09;;;12.66;79.63
76753;BME280;65687;51.308;16.916;2024-03-02T11:52:17;98993.96;;;12.68;79.71
76753;BME280;65687;51.308;16.916;2024-03-02T11:57:21;98990.95;;;12.73;80.77
76753;BME280;65687;51.308;16.916;2024-03-02T12:02:25;98991.21;;;12.80;80.33
76753;BME280;65687;51.308;16.916;2024-03-02T12:07:27;98995.09;;;12.83;79.95
76753;BME280;65687;51.308;16.916;2024-03-02T12:12:29;98998.56;;;12.85;79.93
76753;BME280;65687;51.308;16.916;2024-03-02T12:17:30;99001.39;;;12.83;79.97
76753;BME280;65687;51.308;16.916;2024-03-02T12:22:32;99003.40;;;12.79;79.71
76753;BME280;65687;51.308;16.916;2024-03-02T12:27:34;98998.65;;;12.75;79.80
76753;BME280;65687;51.308;16.916;2024-03-02T12:32:37;99002.03;;;12.75;79.61
76753;BME280;65687;51.308;16.916;2024-03-02T12:37:46;98999.05;;;12.72;78.73
76753;BME280;65687;51.308;16.916;2024-03-02T12:42:49;98989.88;;;12.72;78.76
76753;BME280;65687;51.308;16.916;2024-03-02T12:47:51;98991.75;;;12.72;78.64
76753;BME280;65687;51.308;16.916;2024-03-02T12:52:54;98992.53;;;12.70;78.57
76753;BME280;65687;51.308;16.916;2024-03-02T12:57:56;98984.35;;;12.69;78.74
76753;BME280;65687;51.308;16.916;2024-03-02T13:02:58;98987.08;;;12.69;78.81
76753;BME280;65687;51.308;16.916;2024-03-02T13:08:04;98981.44;;;12.72;79.55
76753;BME280;65687;51.308;16.916;2024-03-02T13:13:08;98980.90;;;12.76;79.21
76753;BME280;65687;51.308;16.916;2024-03-02T13:18:11;98976.91;;;12.78;79.68
76753;BME280;65687;51.308;16.916;2024-03-02T13:23:12;98977.70;;;12.81;79.88
76753;BME280;65687;51.308;16.916;2024-03-02T13:28:14;98978.51;;;12.83;80.01
76753;BME280;65687;51.308;16.916;2024-03-02T13:33:16;98979.68;;;12.83;79.55
76753;BME280;65687;51.308;16.916;2024-03-02T13:38:21;98981.37;;;12.87;79.64
76753;BME280;65687;51.308;16.916;2024-03-02T13:43:22;98980.65;;;12.90;79.99
76753;BME280;65687;51.308;16.916;2024-03-02T13:48:25;98981.04;;;12.91;79.41
76753;BME280;65687;51.308;16.916;2024-03-02T13:53:27;98984.46;;;12.92;79.18
76753;BME280;65687;51.308;16.916;2024-03-02T13:58:29;98988.71;;;12.92;79.36
76753;BME280;65687;51.308;16.916;2024-03-02T14:03:31;98985.19;;;12.93;79.39
76753;BME280;65687;51.308;16.916;2024-03-02T14:08:33;98986.58;;;12.94;78.27
76753;BME280;65687;51.308;16.916;2024-03-02T14:13:37;98989.38;;;12.92;78.57
76753;BME280;65687;51.308;16.916;2024-03-02T14:18:38;98992.82;;;12.89;78.88
76753;BME280;65687;51.308;16.916;2024-03-02T14:23:41;98991.73;;;12.88;79.06
76753;BME280;65687;51.308;16.916;2024-03-02T14:28:42;98990.94;;;12.85;78.97
76753;BME280;65687;51.308;16.916;2024-03-02T14:33:44;98990.59;;;12.81;79.13
76753;BME280;65687;51.308;16.916;2024-03-02T14:38:46;98993.23;;;12.79;79.19
76753;BME280;65687;51.308;16.916;2024-03-02T14:43:47;98991.29;;;12.77;79.90
76753;BME280;65687;51.308;16.916;2024-03-02T14:48:50;98989.14;;;12.74;80.09
76753;BME280;65687;51.308;16.916;2024-03-02T14:53:52;98987.13;;;12.71;80.62
76753;BME280;65687;51.308;16.916;2024-03-02T14:58:54;98985.45;;;12.67;81.16
76753;BME280;65687;51.308;16.916;2024-03-02T15:03:56;98979.94;;;12.61;81.16
76753;BME280;65687;51.308;16.916;2024-03-02T15:08:57;98979.77;;;12.57;80.82
76753;BME280;65687;51.308;16.916;2024-03-02T15:13:59;98979.46;;;12.54;80.76
76753;BME280;65687;51.308;16.916;2024-03-02T15:19:01;98983.92;;;12.52;80.76
76753;BME280;65687;51.308;16.916;2024-03-02T15:24:03;98979.02;;;12.48;81.13
76753;BME280;65687;51.308;16.916;2024-03-02T15:29:05;98980.19;;;12.44;81.24
76753;BME280;65687;51.308;16.916;2024-03-02T15:34:07;98978.63;;;12.39;81.40
76753;BME280;65687;51.308;16.916;2024-03-02T15:39:09;98976.77;;;12.35;81.03
76753;BME280;65687;51.308;16.916;2024-03-02T15:44:11;98979.80;;;12.31;81.53
76753;BME280;65687;51.308;16.916;2024-03-02T15:49:12;98978.39;;;12.26;81.35
76753;BME280;65687;51.308;16.916;2024-03-02T15:54:14;98974.52;;;12.22;81.44
76753;BME280;65687;51.308;16.916;2024-03-02T15:59:16;98975.73;;;12.20;81.75
76753;BME280;65687;51.308;16.916;2024-03-02T16:04:18;98966.27;;;12.16;81.71
76753;BME280;65687;51.308;16.916;2024-03-02T16:09:20;98966.69;;;12.14;82.04
76753;BME280;65687;51.308;16.916;2024-03-02T16:14:21;98970.58;;;12.07;82.38
76753;BME280;65687;51.308;16.916;2024-03-02T16:19:23;98974.10;;;11.98;82.79
76753;BME280;65687;51.308;16.916;2024-03-02T16:24:24;98975.78;;;11.90;83.38
76753;BME280;65687;51.308;16.916;2024-03-02T16:29:26;98978.45;;;11.83;83.75
76753;BME280;65687;51.308;16.916;2024-03-02T16:34:28;98977.98;;;11.73;84.06
76753;BME280;65687;51.308;16.916;2024-03-02T16:39:30;98978.78;;;11.69;84.07
76753;BME280;65687;51.308;16.916;2024-03-02T16:44:31;98979.29;;;11.65;84.04
76753;BME280;65687;51.308;16.916;2024-03-02T16:49:33;98987.72;;;11.61;84.54
76753;BME280;65687;51.308;16.916;2024-03-02T16:54:35;98986.45;;;11.55;84.78
76753;BME280;65687;51.308;16.916;2024-03-02T16:59:36;98982.54;;;11.48;85.08
76753;BME280;65687;51.308;16.916;2024-03-02T17:04:39;98981.75;;;11.42;85.52
76753;BME280;65687;51.308;16.916;2024-03-02T17:09:41;98983.41;;;11.34;86.02
76753;BME280;65687;51.308;16.916;2024-03-02T17:14:43;98982.36;;;11.30;86.22
76753;BME280;65687;51.308;16.916;2024-03-02T17:19:46;98980.39;;;11.28;86.03
76753;BME280;65687;51.308;16.916;2024-03-02T17:24:48;98981.70;;;11.27;86.23
76753;BME280;65687;51.308;16.916;2024-03-02T17:29:50;98984.45;;;11.25;86.23
76753;BME280;65687;51.308;16.916;2024-03-02T17:34:52;98986.27;;;11.24;85.96
76753;BME280;65687;51.308;16.916;2024-03-02T17:39:53;98988.25;;;11.23;85.96
76753;BME280;65687;51.308;16.916;2024-03-02T17:44:56;98984.31;;;11.22;85.91
76753;BME280;65687;51.308;16.916;2024-03-02T17:49:57;98983.58;;;11.17;86.27
76753;BME280;65687;51.308;16.916;2024-03-02T17:54:59;98991.44;;;11.15;86.37
76753;BME280;65687;51.308;16.916;2024-03-02T18:00:01;98989.52;;;11.10;86.60
76753;BME280;65687;51.308;16.916;2024-03-02T18:05:03;98989.47;;;11.06;86.78
76753;BME280;65687;51.308;16.916;2024-03-02T18:10:06;98989.98;;;10.96;87.05
76753;BME280;65687;51.308;16.916;2024-03-02T18:15:08;98988.61;;;10.89;87.21
76753;BME280;65687;51.308;16.916;2024-03-02T18:20:10;98986.98;;;10.84;87.56
76753;BME280;65687;51.308;16.916;2024-03-02T18:25:12;98984.86;;;10.81;87.75
76753;BME280;65687;51.308;16.916;2024-03-02T18:30:14;98989.12;;;10.75;87.99
76753;BME280;65687;51.308;16.916;2024-03-02T18:35:15;98990.00;;;10.69;88.20
76753;BME280;65687;51.308;16.916;2024-03-02T18:40:19;98991.27;;;10.61;88.47
76753;BME280;65687;51.308;16.916;2024-03-02T18:45:21;98992.27;;;10.55;88.84
76753;BME280;65687;51.308;16.916;2024-03-02T18:50:22;98990.99;;;10.50;88.96
76753;BME280;65687;51.308;16.916;2024-03-02T18:55:24;98987.50;;;10.40;89.25
76753;BME280;65687;51.308;16.916;2024-03-02T19:00:26;98980.92;;;10.31;89.64
76753;BME280;65687;51.308;16.916;2024-03-02T19:05:27;98979.62;;;10.22;90.12
76753;BME280;65687;51.308;16.916;2024-03-02T19:10:29;98984.20;;;10.17;90.25
76753;BME280;65687;51.308;16.916;2024-03-02T19:15:31;98986.39;;;10.11;90.80
76753;BME280;65687;51.308;16.916;2024-03-02T19:20:33;98984.04;;;10.08;90.98
76753;BME280;65687;51.308;16.916;2024-03-02T19:25:34;98983.25;;;10.09;91.23
76753;BME280;65687;51.308;16.916;2024-03-02T19:30:36;98980.30;;;10.07;91.46
76753;BME280;65687;51.308;16.916;2024-03-02T19:35:38;98984.80;;;10.06;91.55
76753;BME280;65687;51.308;16.916;2024-03-02T19:40:40;98987.52;;;10.07;91.59
76753;BME280;65687;51.308;16.916;2024-03-02T19:45:41;98985.54;;;10.07;91.61
76753;BME280;65687;51.308;16.916;2024-03-02T19:50:43;98984.33;;;10.07;91.52
76753;BME280;65687;51.308;16.916;2024-03-02T19:55:45;98986.23;;;10.04;91.54
76753;BME280;65687;51.308;16.916;2024-03-02T20:00:48;98980.54;;;10.02;91.82
76753;BME280;65687;51.308;16.916;2024-03-02T20:05:49;98979.86;;;10.05;91.74
76753;BME280;65687;51.308;16.916;2024-03-02T20:10:51;98978.31;;;10.08;91.56
76753;BME280;65687;51.308;16.916;2024-03-02T20:15:53;98977.83;;;10.08;91.45
76753;BME280;65687;51.308;16.916;2024-03-02T20:20:55;98977.02;;;10.09;91.26
76753;BME280;65687;51.308;16.916;2024-03-02T20:25:57;98977.05;;;10.10;91.07
76753;BME280;65687;51.308;16.916;2024-03-02T20:30:59;98979.77;;;10.10;90.94
76753;BME280;65687;51.308;16.916;2024-03-02T20:36:01;98981.55;;;10.09;90.92
76753;BME280;65687;51.308;16.916;2024-03-02T20:41:04;98982.95;;;10.06;90.81
76753;BME280;65687;51.308;16.916;2024-03-02T20:46:06;98985.48;;;10.03;90.77
76753;BME280;65687;51.308;16.916;2024-03-02T20:51:08;98978.08;;;10.00;90.66
76753;BME280;65687;51.308;16.916;2024-03-02T20:56:10;98978.48;;;9.95;90.68
76753;BME280;65687;51.308;16.916;2024-03-02T21:01:12;98976.67;;;9.90;90.61
76753;BME280;65687;51.308;16.916;2024-03-02T21:06:13;98974.38;;;9.85;90.78
76753;BME280;65687;51.308;16.916;2024-03-02T21:11:15;98972.52;;;9.78;90.62
76753;BME280;65687;51.308;16.916;2024-03-02T21:16:19;98978.10;;;9.73;90.72
76753;BME280;65687;51.308;16.916;2024-03-02T21:21:21;98977.16;;;9.68;90.99
76753;BME280;65687;51.308;16.916;2024-03-02T21:26:23;98979.31;;;9.67;91.11
76753;BME280;65687;51.308;16.916;2024-03-02T21:31:25;98976.10;;;9.63;91.25
76753;BME280;65687;51.308;16.916;2024-03-02T21:36:27;98979.38;;;9.62;91.47
76753;BME280;65687;51.308;16.916;2024-03-02T21:41:28;98984.85;;;9.60;91.62
76753;BME280;65687;51.308;16.916;2024-03-02T21:46:30;98986.39;;;9.57;91.83
76753;BME280;65687;51.308;16.916;2024-03-02T21:51:32;98987.17;;;9.57;92.16
76753;BME280;65687;51.308;16.916;2024-03-02T21:56:34;98987.71;;;9.57;92.49
76753;BME280;65687;51.308;16.916;2024-03-02T22:01:35;98985.55;;;9.57;92.43
76753;BME280;65687;51.308;16.916;2024-03-02T22:06:38;98985.48;;;9.59;92.58
76753;BME280;65687;51.308;16.916;2024-03-02T22:11:40;98981.68;;;9.57;92.44
76753;BME280;65687;51.308;16.916;2024-03-02T22:16:41;98983.75;;;9.56;92.78
76753;BME280;65687;51.308;16.916;2024-03-02T22:21:43;98983.72;;;9.52;92.76
76753;BME280;65687;51.308;16.916;2024-03-02T22:26:45;98983.49;;;9.51;92.89
76753;BME280;65687;51.308;16.916;2024-03-02T22:31:46;98987.36;;;9.48;93.16
76753;BME280;65687;51.308;16.916;2024-03-02T22:36:48;98983.69;;;9.48;93.23
76753;BME280;65687;51.308;16.916;2024-03-02T22:41:50;98987.04;;;9.48;93.38
76753;BME280;65687;51.308;16.916;2024-03-02T22:46:52;98990.69;;;9.50;93.52
76753;BME280;65687;51.308;16.916;2024-03-02T22:51:56;98994.73;;;9.50;93.34
76753;BME280;65687;51.308;16.916;2024-03-02T22:56:58;98994.23;;;9.50;93.52
76753;BME280;65687;51.308;16.916;2024-03-02T23:02:00;98996.67;;;9.48;93.57
76753;BME280;65687;51.308;16.916;2024-03-02T23:07:02;98995.34;;;9.49;93.72
76753;BME280;65687;51.308;16.916;2024-03-02T23:12:04;98988.08;;;9.49;93.82
76753;BME280;65687;51.308;16.916;2024-03-02T23:17:05;98984.24;;;9.49;93.90
76753;BME280;65687;51.308;16.916;2024-03-02T23:22:07;98976.55;;;9.50;93.85
76753;BME280;65687;51.308;16.916;2024-03-02T23:27:09;98974.08;;;9.51;93.83
76753;BME280;65687;51.308;16.916;2024-03-02T23:32:11;98976.27;;;9.51;93.94
76753;BME280;65687;51.308;16.916;2024-03-02T23:37:13;98974.88;;;9.50;93.91
76753;BME280;65687;51.308;16.916;2024-03-02T23:42:14;98972.47;;;9.50;93.95
76753;BME280;65687;51.308;16.916;2024-03-02T23:47:16;98971.25;;;9.49;94.03
76753;BME280;65687;51.308;16.916;2024-03-02T23:52:17;98970.69;;;9.48;94.12
76753;BME280;65687;51.308;16.916;2024-03-02T23:57:19;98958.30;;;9.46;94.23
